Bradenton, FL (34209)

2:58 PM EDT en Agosto 27, 2014 (GMT -0400)
North of Manatee High School | Change Station
CLOSE
Current Station
Estación meteorológica personal
Location: Bradenton, FL
Altura: 10 ft
Estaciones meteorológicas cercanas

Alt 10 ft 27.49 °N, 82.59 °W | Updated 2 seconds ago

Despejado
Despejado
90.2 ° F
Sensación térmica 92 ° F
N
1.0
Viento Variable Viento desde ESE
Gusts 1.0 mph

Hoy
Alta -- | Baja -- ° F
--% Posibilidad de precipitaciones
Ayer
Alta -- | Baja -- ° F
Precip. -- pul
7:07 AM 7:56 PM
Creciente, 4% visible
Presión 29.92 pul
Visibilidad 10.0 Millas
Nubes Baja 6000 ft
Índice de calor 92 ° F
Punto de rocío 64 ° F
Humedad 43%
Precipitaciones 0.00 pul
Espesor de la nieve No disponible.
UV 12 de una escala de 12
Polen 5.80 de una escala de 12
Calidad del aire No disponible.
Flu Activity No disponible.
METAR KSRQ 271853Z 09007KT 060V120 10SM FEW060 34/18 A2992 RMK AO2 SLP132 T03390183

More Conditions Fewer Conditions

Presión 29.92 pul
Visibilidad 10.0 Millas
Nubes Baja 6000 ft
Índice de calor 92 ° F
Punto de rocío 64 ° F
Humedad 43%
Precipitaciones 0.00 pul
Espesor de la nieve No disponible.
UV 12 de una escala de 12
Polen 5.80 de una escala de 12
Calidad del aire No disponible.
Flu Activity No disponible.
METAR KSRQ 271853Z 09007KT 060V120 10SM FEW060 34/18 A2992 RMK AO2 SLP132 T03390183

More Conditions Fewer Conditions

10-Day Weather Forecast

Almanac

Astronomía

Aug. 27, 2014 Salida Puesta
Hora real 7:07 AM EDT 7:56 PM EDT
Crepúsculo civil 6:43 AM EDT 8:20 PM EDT
Crepúsculo náutico 6:15 AM EDT 8:48 PM EDT
Crepúsculo astronómico 5:46 AM EDT 9:17 PM EDT
Luna 8:48 AM EDT 9:04 PM EDT
Horas de luz 13h 37m
Horas de luz
12h 49m
Tomorrow will be 1m 32s shorter.
Creciente, 4% of the Moon is Illuminated
Hoy
Creciente
Sep 2
Cuarto creciente
Sep 8
Luna llena
Sep 15
Cuarto menguante
Sep 24
Nueva

Extremos de hoy

Máximos del estado Bajos del estado

Community

WunderPhotos

Upload Photos

1,747,752 ¡fotos cargadas!

Nearby

Grosos de nieve

Estación Profundido Altura
No tenemos constancia de nieve nueva.

Actividad de terremotos

Ciudad Distance Mag. Tiempo y dato
No hay informes recientes de la actividad sísmica.
Magnitud mínima muestra es 2,5.

Temperaturas de aguas costeras

Lugar Temperatura
St Petersburg, FL 89.1 ° F
Old Port Tampa, FL 87.1 ° F
McKay Bay Entrance, FL 87.1 ° F

Estaciones meteorológicas cercanas